createdAt,value
2023-04-17T00:03:07.328Z,95.38
2023-04-17T00:07:22.972Z,96.27
2023-04-17T00:11:35.465Z,95.43
2023-04-17T00:15:47.828Z,95.05
2023-04-17T00:20:00.218Z,95.94
2023-04-17T00:24:13.444Z,95.57
2023-04-17T00:28:26.452Z,95.44
2023-04-17T00:32:39.002Z,95.67
2023-04-17T00:36:51.395Z,95.34
2023-04-17T00:41:03.878Z,96.07
2023-04-17T00:45:16.822Z,96.20
2023-04-17T00:49:32.629Z,95.70
2023-04-17T00:53:46.246Z,96.14
2023-04-17T00:57:59.397Z,96.57
2023-04-17T01:02:13.399Z,96.86
2023-04-17T01:06:27.369Z,96.48
2023-04-17T01:10:39.845Z,96.89
2023-04-17T01:14:55.328Z,97.06
2023-04-17T01:19:09.554Z,97.57
2023-04-17T01:23:26.286Z,98.10
2023-04-17T01:27:38.875Z,98.34
2023-04-17T01:31:51.617Z,97.36
2023-04-17T01:36:04.228Z,97.93
2023-04-17T01:40:16.761Z,97.80
2023-04-17T01:44:29.978Z,97.83
2023-04-17T01:48:42.473Z,97.69
2023-04-17T01:52:55.004Z,98.17
2023-04-17T01:57:07.368Z,98.96
2023-04-17T02:01:20.208Z,98.52
2023-04-17T02:05:32.720Z,98.71
2023-04-17T02:09:45.212Z,98.41
2023-04-17T02:13:57.637Z,98.83
2023-04-17T02:18:10.345Z,98.80
2023-04-17T02:22:23.015Z,99.04
2023-04-17T02:26:37.338Z,98.92
2023-04-17T02:30:50.950Z,99.49
2023-04-17T02:35:03.447Z,99.29
2023-04-17T02:39:17.495Z,99.67
2023-04-17T02:43:30.559Z,98.71
2023-04-17T02:47:43.160Z,98.62
2023-04-17T02:51:56.105Z,98.77
2023-04-17T02:56:08.641Z,99.03
2023-04-17T03:00:23.166Z,99.24
2023-04-17T03:04:38.994Z,98.62
2023-04-17T03:08:51.878Z,98.62
2023-04-17T03:13:04.861Z,98.11
2023-04-17T03:17:18.668Z,98.25
2023-04-17T03:21:31.706Z,97.88
2023-04-17T03:25:44.593Z,98.25
2023-04-17T03:29:57.586Z,98.70
2023-04-17T03:34:11.761Z,98.31
2023-04-17T03:38:24.671Z,98.71
2023-04-17T03:42:38.149Z,98.65
2023-04-17T03:46:51.011Z,99.59
2023-04-17T03:51:04.347Z,99.28
2023-04-17T03:55:18.425Z,99.25
2023-04-17T03:59:34.084Z,99.54
2023-04-17T04:03:46.817Z,99.99
2023-04-17T04:07:59.564Z,99.76
2023-04-17T04:12:23.219Z,100.00
2023-04-17T04:16:36.277Z,100.00
2023-04-17T04:20:55.107Z,100.00
2023-04-17T04:25:16.396Z,100.00
2023-04-17T04:29:35.532Z,100.00
2023-04-17T04:33:55.453Z,100.00
2023-04-17T04:38:09.970Z,100.00
2023-04-17T04:42:23.732Z,99.80
2023-04-17T04:46:47.397Z,99.06
2023-04-17T04:51:00.820Z,99.03
2023-04-17T04:55:14.804Z,95.75
2023-04-17T04:59:32.691Z,94.60
2023-04-17T05:04:03.802Z,93.57
2023-04-17T05:08:16.874Z,93.02
2023-04-17T05:12:37.437Z,91.52
2023-04-17T05:16:52.936Z,89.78
2023-04-17T05:21:06.008Z,88.84
2023-04-17T05:25:20.044Z,84.82
2023-04-17T05:29:33.367Z,79.39
2023-04-17T05:33:46.147Z,80.59
2023-04-17T05:37:58.737Z,81.25
2023-04-17T05:42:11.226Z,82.84
2023-04-17T05:46:23.648Z,83.49
2023-04-17T05:50:37.745Z,85.02
2023-04-17T05:54:51.484Z,84.24
2023-04-17T05:59:05.934Z,83.30
2023-04-17T06:03:19.895Z,82.47
2023-04-17T06:07:38.730Z,80.77
2023-04-17T06:11:51.745Z,81.19
2023-04-17T06:16:04.654Z,81.14
2023-04-17T06:20:17.208Z,80.29
2023-04-17T06:24:29.719Z,80.04
2023-04-17T06:28:43.038Z,80.90
2023-04-17T06:32:56.058Z,78.58
2023-04-17T06:37:08.600Z,76.66
2023-04-17T06:41:23.781Z,74.28
2023-04-17T06:45:36.416Z,73.84
2023-04-17T06:49:51.671Z,72.50
2023-04-17T06:54:04.109Z,69.81
2023-04-17T06:58:16.515Z,67.45
2023-04-17T07:02:29.154Z,64.59
2023-04-17T07:06:42.213Z,61.57
2023-04-17T07:10:55.288Z,60.85
2023-04-17T07:15:08.841Z,60.35
2023-04-17T07:19:21.244Z,57.48
2023-04-17T07:23:33.658Z,52.69
2023-04-17T07:27:46.405Z,50.04
2023-04-17T07:31:59.114Z,48.99
2023-04-17T07:36:12.288Z,49.39
2023-04-17T07:40:24.996Z,48.28
2023-04-17T07:44:39.275Z,50.88
2023-04-17T07:48:51.701Z,51.04
2023-04-17T07:53:04.155Z,53.16
2023-04-17T07:57:18.341Z,52.65
2023-04-17T08:01:32.217Z,54.74
2023-04-17T08:05:44.672Z,54.11
2023-04-17T08:09:57.255Z,53.84
2023-04-17T08:14:11.847Z,53.54
2023-04-17T08:18:24.275Z,52.03
2023-04-17T08:22:41.304Z,52.59
2023-04-17T08:26:53.765Z,53.53
2023-04-17T08:31:06.497Z,53.90
2023-04-17T08:35:19.273Z,55.47
2023-04-17T08:39:31.772Z,53.06
2023-04-17T08:43:50.317Z,55.27
2023-04-17T08:48:02.785Z,52.57
2023-04-17T08:52:15.261Z,53.61
2023-04-17T08:56:29.962Z,55.95
2023-04-17T09:00:44.217Z,52.01
2023-04-17T09:04:57.078Z,52.47
2023-04-17T09:09:09.808Z,50.22
2023-04-17T09:13:28.011Z,45.90
2023-04-17T09:17:40.446Z,43.21
2023-04-17T09:21:55.018Z,40.95
2023-04-17T09:26:09.964Z,46.09
2023-04-17T09:30:27.202Z,45.97
2023-04-17T09:34:42.643Z,47.05
2023-04-17T09:38:55.162Z,47.46
2023-04-17T09:43:11.877Z,45.53
2023-04-17T09:47:24.466Z,42.92
2023-04-17T09:51:37.485Z,42.91
2023-04-17T09:55:53.522Z,43.12
2023-04-17T10:00:11.178Z,42.56
2023-04-17T10:04:23.849Z,43.84
2023-04-17T10:08:36.542Z,42.61
2023-04-17T10:12:50.883Z,43.84
2023-04-17T10:17:28.976Z,43.23
2023-04-17T10:21:41.742Z,43.52
2023-04-17T10:26:26.074Z,44.84
2023-04-17T10:30:54.841Z,43.72
2023-04-17T10:35:18.277Z,43.11
2023-04-17T10:40:02.069Z,41.46
2023-04-17T10:44:16.739Z,41.29
2023-04-17T10:48:31.310Z,41.38
2023-04-17T10:52:45.943Z,41.44
2023-04-17T10:56:58.702Z,40.49
2023-04-17T11:01:12.370Z,41.85
2023-04-17T11:05:24.986Z,41.27
2023-04-17T11:09:38.617Z,41.48
2023-04-17T11:13:51.159Z,38.94
2023-04-17T11:18:04.433Z,35.96
2023-04-17T11:22:17.397Z,37.24
2023-04-17T11:26:29.868Z,37.99
2023-04-17T11:30:44.898Z,39.02
2023-04-17T11:34:58.208Z,39.22
2023-04-17T11:39:11.180Z,40.90
2023-04-17T11:43:24.917Z,38.95
2023-04-17T11:47:37.482Z,37.33
2023-04-17T11:51:49.913Z,36.29
2023-04-17T11:56:31.703Z,38.60
2023-04-17T12:00:44.247Z,37.21
2023-04-17T12:05:13.906Z,38.58
2023-04-17T12:09:31.642Z,36.33
2023-04-17T12:13:44.256Z,37.09
2023-04-17T12:17:56.753Z,41.00
2023-04-17T12:22:09.183Z,43.36
2023-04-17T12:26:22.268Z,41.53
2023-04-17T12:30:36.356Z,43.52
2023-04-17T12:34:48.822Z,44.00
2023-04-17T12:39:01.781Z,45.27
2023-04-17T12:43:14.341Z,45.62
2023-04-17T12:47:27.636Z,46.40
2023-04-17T12:51:40.179Z,43.34
2023-04-17T12:55:52.813Z,41.95
2023-04-17T13:00:07.463Z,42.63
2023-04-17T13:04:20.315Z,44.16
2023-04-17T13:08:33.159Z,44.05
2023-04-17T13:12:45.671Z,43.45
2023-04-17T13:16:58.205Z,43.81
2023-04-17T13:21:10.789Z,42.24
2023-04-17T13:25:23.238Z,42.11
2023-04-17T13:29:36.143Z,42.73
2023-04-17T13:33:49.478Z,44.38
2023-04-17T13:38:03.339Z,47.47
2023-04-17T13:42:17.151Z,52.01
2023-04-17T13:46:30.203Z,59.61
2023-04-17T13:50:44.260Z,62.70
2023-04-17T13:54:56.699Z,62.45
2023-04-17T13:59:10.636Z,64.09
2023-04-17T14:03:23.298Z,66.79
2023-04-17T14:07:35.898Z,70.32
2023-04-17T14:11:48.333Z,71.25
2023-04-17T14:16:00.724Z,70.84
2023-04-17T14:20:15.404Z,73.35
2023-04-17T14:24:27.910Z,72.84
2023-04-17T14:28:40.473Z,71.78
2023-04-17T14:32:53.799Z,69.26
2023-04-17T14:37:06.353Z,68.02
2023-04-17T14:41:18.778Z,67.42
2023-04-17T14:45:31.189Z,71.43
2023-04-17T14:49:43.584Z,78.45
2023-04-17T14:53:56.021Z,82.05
2023-04-17T14:58:08.743Z,83.36
2023-04-17T15:02:21.381Z,83.32
2023-04-17T15:06:33.903Z,86.46
2023-04-17T15:10:51.243Z,85.81
2023-04-17T15:15:04.489Z,85.32
2023-04-17T15:19:16.961Z,85.88
2023-04-17T15:23:31.689Z,83.74
2023-04-17T15:27:44.005Z,83.82
2023-04-17T15:31:56.587Z,80.04
2023-04-17T15:36:09.086Z,80.79
2023-04-17T15:40:21.733Z,80.40
2023-04-17T15:44:35.488Z,81.60
2023-04-17T15:48:57.664Z,80.57
2023-04-17T15:53:19.704Z,80.79
2023-04-17T15:57:32.037Z,80.34
2023-04-17T16:01:46.914Z,80.96
2023-04-17T16:05:59.540Z,80.61
2023-04-17T16:10:14.867Z,79.62
2023-04-17T16:14:27.984Z,79.94
2023-04-17T16:18:40.851Z,80.97
2023-04-17T16:22:53.312Z,81.31
2023-04-17T16:27:07.128Z,78.96
2023-04-17T16:31:21.608Z,80.46
2023-04-17T16:35:34.188Z,79.70
2023-04-17T16:39:47.552Z,81.21
2023-04-17T16:43:59.919Z,81.05
2023-04-17T16:48:12.784Z,80.39
2023-04-17T16:52:25.544Z,80.00
2023-04-17T16:56:38.068Z,80.74
2023-04-17T17:00:51.472Z,81.23
2023-04-17T17:05:04.693Z,79.99
2023-04-17T17:09:17.412Z,81.84
2023-04-17T17:13:30.125Z,82.25
2023-04-17T17:17:43.398Z,83.15
2023-04-17T17:21:55.771Z,82.46
2023-04-17T17:26:08.636Z,85.10
2023-04-17T17:30:22.665Z,85.18
2023-04-17T17:34:36.370Z,87.67
2023-04-17T17:38:56.080Z,86.47
2023-04-17T17:43:08.662Z,87.25
2023-04-17T17:47:21.090Z,88.45
2023-04-17T17:51:36.127Z,89.01
2023-04-17T17:55:52.637Z,89.69
2023-04-17T18:00:05.514Z,88.00
2023-04-17T18:04:18.153Z,89.72
2023-04-17T18:08:31.206Z,90.11
2023-04-17T18:12:43.928Z,90.89
2023-04-17T18:16:58.522Z,90.90
2023-04-17T18:21:12.160Z,91.50
2023-04-17T18:25:24.773Z,88.56
2023-04-17T18:29:37.253Z,88.16
2023-04-17T18:33:49.671Z,89.86
2023-04-17T18:38:02.136Z,90.74
2023-04-17T18:42:14.569Z,90.61
2023-04-17T18:46:30.662Z,91.13
2023-04-17T18:50:43.334Z,90.30
2023-04-17T18:54:55.780Z,90.02
2023-04-17T18:59:08.231Z,90.86
2023-04-17T19:03:20.657Z,91.39
2023-04-17T19:07:33.071Z,90.32
2023-04-17T19:11:46.067Z,90.19
2023-04-17T19:15:58.587Z,91.33
2023-04-17T19:20:11.197Z,91.52
2023-04-17T19:24:23.646Z,88.42
2023-04-17T19:28:36.727Z,90.27
2023-04-17T19:32:49.287Z,90.85
2023-04-17T19:37:01.724Z,90.10
2023-04-17T19:41:20.141Z,90.89
2023-04-17T19:45:34.513Z,92.37
2023-04-17T19:49:49.173Z,93.13
2023-04-17T19:54:01.567Z,93.11
2023-04-17T19:58:13.982Z,93.56
2023-04-17T20:02:27.153Z,94.39
2023-04-17T20:06:41.241Z,93.37
2023-04-17T20:10:53.807Z,92.52
2023-04-17T20:15:06.599Z,93.36
2023-04-17T20:19:19.093Z,93.53
2023-04-17T20:23:31.493Z,93.62
2023-04-17T20:27:43.865Z,93.80
2023-04-17T20:31:56.303Z,94.40
2023-04-17T20:36:08.802Z,94.01
2023-04-17T20:40:23.170Z,93.45
2023-04-17T20:44:35.636Z,92.30
2023-04-17T20:48:48.870Z,92.36
2023-04-17T20:53:01.130Z,92.26
2023-04-17T20:57:13.547Z,92.94
2023-04-17T21:01:26.046Z,93.45
2023-04-17T21:05:38.534Z,94.53
2023-04-17T21:09:51.225Z,94.52
2023-04-17T21:14:04.106Z,95.08
2023-04-17T21:18:16.494Z,94.59
2023-04-17T21:22:28.863Z,95.29
2023-04-17T21:26:41.269Z,94.99
2023-04-17T21:30:53.987Z,95.42
2023-04-17T21:35:07.299Z,95.34
2023-04-17T21:39:19.832Z,95.29
2023-04-17T21:43:32.278Z,94.91
2023-04-17T21:47:44.689Z,94.56
2023-04-17T21:51:57.630Z,93.97
2023-04-17T21:56:10.126Z,94.02
2023-04-17T22:00:23.139Z,94.59
2023-04-17T22:04:36.009Z,94.79
2023-04-17T22:08:48.604Z,94.62
2023-04-17T22:13:01.108Z,94.88
2023-04-17T22:17:13.613Z,95.32
2023-04-17T22:21:45.009Z,95.56
2023-04-17T22:26:16.293Z,96.69
2023-04-17T22:31:27.553Z,96.49
2023-04-17T22:35:39.944Z,95.75
2023-04-17T22:40:30.444Z,95.66
2023-04-17T22:45:38.684Z,94.60
2023-04-17T22:50:50.105Z,93.78
2023-04-17T22:55:04.347Z,93.35
2023-04-17T22:59:54.201Z,93.20
2023-04-17T23:04:43.801Z,92.78
2023-04-17T23:09:33.205Z,93.99
2023-04-17T23:13:45.730Z,94.31
2023-04-17T23:17:58.141Z,93.52
2023-04-17T23:22:10.716Z,93.57
2023-04-17T23:26:23.342Z,93.46
2023-04-17T23:30:36.088Z,94.03
2023-04-17T23:34:48.757Z,93.75
2023-04-17T23:39:01.719Z,93.23
2023-04-17T23:43:14.437Z,93.97
2023-04-17T23:47:27.058Z,94.56
2023-04-17T23:51:39.755Z,94.27
2023-04-17T23:55:52.480Z,94.71
